Portada
METAR-TAF:

METAR-TAF

Aeropuertos :

El Goléa, Argelia

latitud: 30-34N, longitud: 002-52E, altitud: 397 m

Observación

El informe se hizo hace 56 minutos, a las 14:00 UTC
Viento 10 kt del este-noreste
Temperatura 31°C
Humedad 18%
Presión 1009 hPa
Visibilidad 10 km o más
Escasas nubes a una altura de 4000 ft
Nubes dispersas a una altura de 23300 ft

METAR: DAUE 191400Z 06010KT 9999 FEW040 SCT233 31/04 Q1009

Hora: 15:56 (14:56 UTC)


TAF: falta

Observaciones y pronósticos meteorológicos de más de 4000 aeropuertos (mensajes METAR y TAF).

Los puntos amarillos y rojos representan las estaciones disponibles.

Ponga el ratón en el punto deseado para ver el nombre de la estación.

Haga clic para ver las observaciones y los pronósticos meteorológicos.

Para cambiar el mapa : haga clic en los botones verdes con una cruz de color negro para hacer un zoom, en el botón verde con un guión para alejar o en las flechas verdes para mapas adyacentes.


METAR-TAF: